This is the latest recevied weather packets stored in our database for station/object K8MUD. If no packets are shown the sender has not sent any weather packets the latest 10 day(s).
| Time | Temp. | Humidity | Pressure | Rain* | Wind** | Luminosity | Snow |
|---|---|---|---|---|---|---|---|
| 1777965030 | 15.56° C | 83% | 999 hPa | 0 mm | - | - | - |
| 1777964730 | 15.56° C | 83% | 999.3 hPa | 0 mm | - | - | - |
| 1777964430 | 15.56° C | 83% | 999.1 hPa | 0 mm | - | - | - |
| 1777964130 | 15.56° C | 83% | 999.1 hPa | 0 mm | - | - | - |
| 1777963830 | 15.56° C | 83% | 999.2 hPa | 0 mm | - | - | - |
| 1777963530 | 15.56° C | 83% | 999.3 hPa | 0 mm | - | - | - |
| 1777963230 | 15.56° C | 84% | 999.5 hPa | 0 mm | - | - | - |
| 1777962930 | 15° C | 84% | 999.5 hPa | 0 mm | - | - | - |
| 1777962629 | 15° C | 84% | 999.8 hPa | 0 mm | - | - | - |
| 1777962329 | 15° C | 84% | 999.3 hPa | 0.25 mm | - | - | - |
| 1777962029 | 15° C | 84% | 999.3 hPa | 0.25 mm | - | - | - |
| 1777961729 | 15° C | 84% | 999.1 hPa | 0.51 mm | - | - | - |
| 1777961429 | 15° C | 84% | 998.9 hPa | 1.02 mm | - | - | - |
| 1777961129 | 15° C | 85% | 999 hPa | 1.27 mm | - | - | - |
| 1777960829 | 15° C | 85% | 999 hPa | 1.27 mm | - | - | - |
| 1777960529 | 15° C | 84% | 999.2 hPa | 1.27 mm | - | - | - |
| 1777960229 | 15° C | 84% | 999.1 hPa | 1.27 mm | - | - | - |
| 1777959929 | 15.56° C | 83% | 999.4 hPa | 1.27 mm | - | - | - |
| 1777959629 | 15.56° C | 83% | 999.6 hPa | 1.27 mm | - | - | - |
| 1777959329 | 15.56° C | 82% | 1000 hPa | 1.27 mm | - | - | - |
| 1777959029 | 16.11° C | 81% | 999.7 hPa | 1.27 mm | - | - | - |
| 1777958729 | 16.67° C | 79% | 999.8 hPa | 1.02 mm | - | - | - |
| 1777958429 | 17.22° C | 77% | 999.7 hPa | 1.02 mm | - | - | - |
| 1777958129 | 17.78° C | 75% | 1000.2 hPa | 0.76 mm | - | - | - |
| 1777957829 | 18.33° C | 72% | 1000.4 hPa | 0.25 mm | - | - | - |
* Rain latest hour (hover to see other rain measurements)
** Current wind speed in m/s (hover to see current wind gust speed)